CES7630 ZUXC-PHNL
Flight info
| Callsign | CES7630 |
|---|---|
| Flight time | N/A |
| Altitude | 35100 |
| Route | BOPTU W162 KAKMI W144 IGNAK W179 WFX B213 ESPEG V154 SNF W269 OLPOV B213 WHA R343 PK A593 AKARA/K0917F351 A593 LAMEN/N0496F351 A593 SADLI Y590 BEDAR Y591 FUE Y23 KASTE Y81 TASOT Y57 LIGNI Y816 IPROS Y830 LAPIL OTR13 SEALS DCT 34N153E DCT 34N159E DCT 33N166E DCT 31N173E DCT 29N179E DCT 27N174W DCT 25N168W DCT CANON DCT CANON |
| Aircraft | MD11/H-SDE1E2E3FGHIJ2J3J4J5M1RWXY/LB1D1 |
Departure
| Time | 2026-04-15 00:06 |
|---|---|
| Airport | Xichang Qingshan Airport (ZUXC) |
Arrival
| Time | N/A |
|---|---|
| Airport | Daniel K. Inouye International Airport (PHNL) |
| Time | Latitude | Longitude | Altitude | Speed | Heading |
|---|---|---|---|---|---|
| 2026-04-14 23:46 | 27.98249 | 102.18650 | 5089 ft | 0 kts | 89° |
| 2026-04-14 23:57 | 27.98249 | 102.18649 | 5089 ft | 0 kts | 89° |
| 2026-04-14 23:57 | 27.98248 | 102.18633 | 5092 ft | 4 kts | 89° |
| 2026-04-14 23:57 | 27.98246 | 102.18602 | 5094 ft | 3 kts | 54° |
| 2026-04-14 23:58 | 27.98237 | 102.18589 | 5093 ft | 1 kts | 6° |
| 2026-04-14 23:58 | 27.98249 | 102.18588 | 5094 ft | 11 kts | 1° |
| 2026-04-14 23:58 | 27.98340 | 102.18590 | 5089 ft | 13 kts | 0° |
| 2026-04-14 23:58 | 27.98424 | 102.18588 | 5089 ft | 11 kts | 357° |
| 2026-04-14 23:59 | 27.98499 | 102.18583 | 5089 ft | 10 kts | 356° |
| 2026-04-14 23:59 | 27.98567 | 102.18579 | 5089 ft | 9 kts | 358° |
| 2026-04-14 23:59 | 27.98625 | 102.18577 | 5089 ft | 8 kts | 358° |
| 2026-04-14 23:59 | 27.98683 | 102.18575 | 5089 ft | 8 kts | 358° |
| 2026-04-15 00:00 | 27.98746 | 102.18573 | 5089 ft | 10 kts | 358° |
| 2026-04-15 00:00 | 27.98819 | 102.18571 | 5089 ft | 11 kts | 358° |
| 2026-04-15 00:00 | 27.98903 | 102.18568 | 5089 ft | 13 kts | 358° |
| 2026-04-15 00:00 | 27.98995 | 102.18565 | 5090 ft | 14 kts | 358° |
| 2026-04-15 00:01 | 27.99095 | 102.18562 | 5090 ft | 15 kts | 358° |
| 2026-04-15 00:01 | 27.99201 | 102.18559 | 5090 ft | 16 kts | 358° |
| 2026-04-15 00:01 | 27.99313 | 102.18553 | 5090 ft | 17 kts | 357° |
| 2026-04-15 00:01 | 27.99432 | 102.18546 | 5090 ft | 18 kts | 357° |
| 2026-04-15 00:02 | 27.99557 | 102.18539 | 5090 ft | 18 kts | 357° |
| 2026-04-15 00:02 | 27.99685 | 102.18531 | 5090 ft | 19 kts | 357° |
| 2026-04-15 00:02 | 27.99823 | 102.18524 | 5089 ft | 20 kts | 358° |
| 2026-04-15 00:02 | 27.99966 | 102.18520 | 5089 ft | 21 kts | 359° |
| 2026-04-15 00:03 | 28.00112 | 102.18516 | 5089 ft | 21 kts | 359° |
| 2026-04-15 00:03 | 28.00264 | 102.18512 | 5089 ft | 22 kts | 359° |
| 2026-04-15 00:03 | 28.00418 | 102.18508 | 5090 ft | 22 kts | 359° |
| 2026-04-15 00:03 | 28.00486 | 102.18501 | 5090 ft | 8 kts | 342° |
| 2026-04-15 00:04 | 28.00517 | 102.18473 | 5090 ft | 2 kts | 295° |
| 2026-04-15 00:04 | 28.00517 | 102.18459 | 5091 ft | 3 kts | 270° |
| 2026-04-15 00:04 | 28.00511 | 102.18419 | 5091 ft | 8 kts | 259° |
| 2026-04-15 00:04 | 28.00480 | 102.18369 | 5091 ft | 5 kts | 199° |
| 2026-04-15 00:05 | 28.00402 | 102.18372 | 5091 ft | 32 kts | 177° |
| 2026-04-15 00:05 | 27.99911 | 102.18392 | 5091 ft | 107 kts | 178° |
| 2026-04-15 00:05 | 27.98949 | 102.18429 | 5090 ft | 166 kts | 178° |
| 2026-04-15 00:05 | 27.97696 | 102.18482 | 5303 ft | 184 kts | 177° |
| 2026-04-15 00:06 | 27.96414 | 102.18556 | 5899 ft | 188 kts | 176° |
| 2026-04-15 00:06 | 27.95106 | 102.18639 | 6510 ft | 190 kts | 176° |
| 2026-04-15 00:06 | 27.93800 | 102.18720 | 7094 ft | 191 kts | 177° |
| 2026-04-15 00:06 | 27.92463 | 102.18802 | 7670 ft | 193 kts | 177° |
| 2026-04-15 00:07 | 27.91115 | 102.18881 | 8221 ft | 195 kts | 178° |
| 2026-04-15 00:07 | 27.89719 | 102.18776 | 8502 ft | 211 kts | 193° |
| 2026-04-15 00:07 | 27.88266 | 102.18273 | 8679 ft | 226 kts | 199° |
| 2026-04-15 00:07 | 27.86760 | 102.17684 | 8932 ft | 231 kts | 194° |
| 2026-04-15 00:08 | 27.85169 | 102.17665 | 9286 ft | 231 kts | 162° |
| 2026-04-15 00:08 | 27.83796 | 102.18572 | 9833 ft | 232 kts | 138° |
| 2026-04-15 00:08 | 27.82629 | 102.19845 | 10325 ft | 235 kts | 135° |
| 2026-04-15 00:08 | 27.81484 | 102.21132 | 10819 ft | 236 kts | 135° |
| 2026-04-15 00:09 | 27.80372 | 102.22515 | 11260 ft | 241 kts | 127° |
| 2026-04-15 00:09 | 27.79510 | 102.24198 | 11409 ft | 255 kts | 110° |
| 2026-04-15 00:09 | 27.79153 | 102.26204 | 11556 ft | 268 kts | 90° |
| 2026-04-15 00:09 | 27.79481 | 102.28310 | 11691 ft | 279 kts | 70° |
| 2026-04-15 00:10 | 27.80282 | 102.30354 | 11847 ft | 291 kts | 63° |
| 2026-04-15 00:10 | 27.81226 | 102.32428 | 11958 ft | 302 kts | 62° |
| 2026-04-15 00:10 | 27.82217 | 102.34565 | 12084 ft | 312 kts | 62° |
| 2026-04-15 00:10 | 27.83232 | 102.36771 | 12210 ft | 320 kts | 63° |
| 2026-04-15 00:11 | 27.84248 | 102.38999 | 12367 ft | 326 kts | 63° |
| 2026-04-15 00:11 | 27.85283 | 102.41285 | 12613 ft | 328 kts | 63° |
| 2026-04-15 00:11 | 27.86322 | 102.43594 | 12820 ft | 331 kts | 63° |
| 2026-04-15 00:11 | 27.87366 | 102.45924 | 13051 ft | 333 kts | 63° |
| 2026-04-15 00:12 | 27.88414 | 102.48267 | 13270 ft | 335 kts | 63° |
| 2026-04-15 00:12 | 27.89470 | 102.50627 | 13471 ft | 337 kts | 63° |
| 2026-04-15 00:12 | 27.90536 | 102.52998 | 13690 ft | 339 kts | 63° |
| 2026-04-15 00:12 | 27.91608 | 102.55377 | 13910 ft | 340 kts | 63° |
| 2026-04-15 00:13 | 27.92667 | 102.57728 | 14157 ft | 340 kts | 63° |
| 2026-04-15 00:13 | 27.93742 | 102.60111 | 14402 ft | 341 kts | 63° |
| 2026-04-15 00:13 | 27.94819 | 102.62501 | 14657 ft | 341 kts | 63° |
| 2026-04-15 00:13 | 27.95896 | 102.64894 | 14886 ft | 342 kts | 63° |
| 2026-04-15 00:14 | 27.96978 | 102.67297 | 15093 ft | 344 kts | 63° |
| 2026-04-15 00:14 | 27.98063 | 102.69709 | 15325 ft | 345 kts | 63° |
| 2026-04-15 00:14 | 27.99149 | 102.72124 | 15548 ft | 345 kts | 63° |
| 2026-04-15 00:14 | 28.00236 | 102.74544 | 15779 ft | 346 kts | 63° |
| 2026-04-15 00:15 | 28.01329 | 102.76977 | 15944 ft | 348 kts | 63° |
| 2026-04-15 00:15 | 28.02429 | 102.79428 | 16118 ft | 350 kts | 63° |
| 2026-04-15 00:15 | 28.03513 | 102.81844 | 16353 ft | 349 kts | 63° |
| 2026-04-15 00:15 | 28.04613 | 102.84297 | 16567 ft | 350 kts | 63° |
| 2026-04-15 00:16 | 28.05715 | 102.86757 | 16782 ft | 350 kts | 63° |
| 2026-04-15 00:16 | 28.06816 | 102.89216 | 16958 ft | 351 kts | 63° |
| 2026-04-15 00:16 | 28.07920 | 102.91683 | 17180 ft | 351 kts | 63° |
| 2026-04-15 00:16 | 28.09027 | 102.94158 | 17337 ft | 353 kts | 63° |
| 2026-04-15 00:17 | 28.11503 | 102.99701 | 17786 ft | 353 kts | 63° |
| 2026-04-15 00:17 | 28.12614 | 103.02190 | 17961 ft | 354 kts | 63° |
| 2026-04-15 00:17 | 28.13733 | 103.04701 | 18253 ft | 363 kts | 63° |
| 2026-04-15 00:18 | 28.16126 | 103.10071 | 18570 ft | 398 kts | 63° |
| 2026-04-15 00:18 | 28.17383 | 103.12894 | 19043 ft | 404 kts | 63° |
| 2026-04-15 00:18 | 28.18657 | 103.15758 | 19592 ft | 409 kts | 63° |
| 2026-04-15 00:19 | 28.19944 | 103.18652 | 20129 ft | 414 kts | 63° |
| 2026-04-15 00:19 | 28.21232 | 103.21553 | 20571 ft | 420 kts | 63° |
| 2026-04-15 00:19 | 28.22550 | 103.24523 | 21091 ft | 424 kts | 63° |
| 2026-04-15 00:19 | 28.23880 | 103.27521 | 21639 ft | 426 kts | 63° |
| 2026-04-15 00:20 | 28.25211 | 103.30523 | 22282 ft | 426 kts | 63° |
| 2026-04-15 00:20 | 28.26543 | 103.33533 | 22848 ft | 429 kts | 63° |
| 2026-04-15 00:20 | 28.27876 | 103.36566 | 23409 ft | 430 kts | 63° |
| 2026-04-15 00:20 | 28.29215 | 103.39617 | 23932 ft | 432 kts | 63° |
| 2026-04-15 00:21 | 28.30561 | 103.42683 | 24414 ft | 435 kts | 63° |
| 2026-04-15 00:21 | 28.31921 | 103.45773 | 24830 ft | 439 kts | 63° |
| 2026-04-15 00:21 | 28.33276 | 103.48851 | 25248 ft | 443 kts | 63° |
| 2026-04-15 00:21 | 28.34657 | 103.51985 | 25743 ft | 445 kts | 63° |
| 2026-04-15 00:22 | 28.36047 | 103.55141 | 26187 ft | 448 kts | 63° |
| 2026-04-15 00:22 | 28.37447 | 103.58320 | 26558 ft | 453 kts | 63° |
| 2026-04-15 00:22 | 28.38864 | 103.61543 | 26807 ft | 459 kts | 63° |
| 2026-04-15 00:22 | 28.40292 | 103.64792 | 27262 ft | 460 kts | 63° |
| 2026-04-15 00:23 | 28.41725 | 103.68055 | 27665 ft | 463 kts | 63° |
| 2026-04-15 00:23 | 28.43156 | 103.71315 | 28235 ft | 461 kts | 63° |
| 2026-04-15 00:23 | 28.44572 | 103.74546 | 28532 ft | 465 kts | 63° |
| 2026-04-15 00:23 | 28.46018 | 103.77848 | 28930 ft | 467 kts | 63° |
| 2026-04-15 00:24 | 28.47462 | 103.81147 | 29420 ft | 466 kts | 63° |
| 2026-04-15 00:24 | 28.48907 | 103.84451 | 29785 ft | 469 kts | 63° |
| 2026-04-15 00:24 | 28.50363 | 103.87783 | 30069 ft | 472 kts | 63° |
| 2026-04-15 00:24 | 28.51824 | 103.91130 | 30499 ft | 472 kts | 63° |
| 2026-04-15 00:25 | 28.53277 | 103.94460 | 31085 ft | 468 kts | 64° |
| 2026-04-15 00:25 | 28.54716 | 103.97762 | 31642 ft | 464 kts | 64° |
| 2026-04-15 00:25 | 28.56154 | 104.01064 | 31907 ft | 468 kts | 64° |
| 2026-04-15 00:25 | 28.57574 | 104.04333 | 32318 ft | 466 kts | 64° |
| 2026-04-15 00:26 | 28.59004 | 104.07648 | 32676 ft | 466 kts | 64° |
| 2026-04-15 00:26 | 28.60424 | 104.10945 | 33186 ft | 462 kts | 64° |
| 2026-04-15 00:26 | 28.61838 | 104.14224 | 33505 ft | 462 kts | 64° |
| 2026-04-15 00:26 | 28.63277 | 104.17485 | 33908 ft | 460 kts | 62° |
| 2026-04-15 00:27 | 28.64935 | 104.20588 | 34274 ft | 457 kts | 54° |
| 2026-04-15 00:27 | 28.66978 | 104.23340 | 34644 ft | 454 kts | 44° |
| 2026-04-15 00:27 | 28.69416 | 104.25605 | 35018 ft | 451 kts | 33° |
| 2026-04-15 00:27 | 28.72126 | 104.27308 | 35174 ft | 453 kts | 23° |
| 2026-04-15 00:28 | 28.75120 | 104.28474 | 35213 ft | 458 kts | 13° |
| 2026-04-15 00:28 | 28.81465 | 104.29066 | 35221 ft | 457 kts | 358° |
| 2026-04-15 00:29 | 28.87791 | 104.28565 | 35221 ft | 454 kts | 355° |
| 2026-04-15 00:29 | 28.94081 | 104.28055 | 35220 ft | 453 kts | 356° |
| 2026-04-15 00:30 | 29.00336 | 104.27660 | 35220 ft | 453 kts | 357° |
| 2026-04-15 00:30 | 29.06640 | 104.27308 | 35220 ft | 454 kts | 357° |
| 2026-04-15 00:31 | 29.12950 | 104.26962 | 35220 ft | 454 kts | 357° |
| 2026-04-15 00:31 | 29.19261 | 104.26613 | 35220 ft | 454 kts | 357° |
| 2026-04-15 00:32 | 29.24500 | 104.26322 | 35220 ft | 454 kts | 357° |
| 2026-04-15 00:32 | 29.31814 | 104.26729 | 35220 ft | 454 kts | 8° |